Time;durP1;ratioP1;P1;durP2;ratioP2;P2;SDS_P1;SDS_P2;PMS_P1;PMS_P2;Temp;Humidity;BMP_temperature;BMP_pressure;BME280_temperature;BME280_humidity;BME280_pressure;Samples;Min_cycle;Max_cycle;Signal;HPM_P1;HPM_P2
2021/08/28 00:02:12;;;;;;;8.10;7.30;;;;;;;;;;5093995;28;20467;-70
2021/08/28 00:04:39;;;;;;;11.83;7.90;;;;;;;;;;5093854;28;20962;-70
2021/08/28 00:07:06;;;;;;;10.03;8.37;;;;;;;;;;5093553;28;20444;-71
2021/08/28 00:09:34;;;;;;;12.27;7.90;;;;;;;;;;5093803;28;20452;-71
2021/08/28 00:12:01;;;;;;;10.30;7.80;;;;;;;;;;5093686;28;20487;-71
2021/08/28 00:14:29;;;;;;;10.37;8.00;;;;;;;;;;5093573;28;20447;-71
2021/08/28 00:16:57;;;;;;;9.67;7.20;;;;;;;;;;5094308;28;20440;-71
2021/08/28 00:19:24;;;;;;;14.97;6.90;;;;;;;;;;5093403;28;20942;-70
2021/08/28 00:21:51;;;;;;;11.97;8.20;;;;;;;;;;5093685;28;20454;-70
2021/08/28 00:24:18;;;;;;;9.00;7.90;;;;;;;;;;5093429;28;20565;-70
2021/08/28 00:26:46;;;;;;;12.57;8.27;;;;;;;;;;5093344;28;20441;-70
2021/08/28 00:29:13;;;;;;;11.70;7.80;;;;;;;;;;5093717;28;20442;-70
2021/08/28 00:31:43;;;;;;;12.23;7.80;;;;;;;;;;5093952;28;20484;-70
2021/08/28 00:34:10;;;;;;;9.60;8.60;;;;;;;;;;5093979;28;20457;-70
2021/08/28 00:36:37;;;;;;;9.43;8.27;;;;;;;;;;5093816;28;20525;-71
2021/08/28 00:39:05;;;;;;;11.07;8.00;;;;;;;;;;5093477;28;20445;-70
2021/08/28 00:41:33;;;;;;;9.63;7.87;;;;;;;;;;5093756;28;20789;-70
2021/08/28 00:44:00;;;;;;;12.13;7.73;;;;;;;;;;5093487;28;20454;-70
2021/08/28 00:46:27;;;;;;;11.00;8.50;;;;;;;;;;5094324;28;20540;-70
2021/08/28 00:48:56;;;;;;;20.23;9.70;;;;;;;;;;5098239;28;20443;-69
2021/08/28 00:51:23;;;;;;;19.87;8.63;;;;;;;;;;5097430;28;20461;-70
2021/08/28 00:53:50;;;;;;;12.80;7.43;;;;;;;;;;5097303;28;20484;-69
2021/08/28 00:56:17;;;;;;;10.93;7.93;;;;;;;;;;5097044;28;20441;-71
2021/08/28 00:58:44;;;;;;;10.40;9.27;;;;;;;;;;5097251;28;20941;-69
2021/08/28 01:01:13;;;;;;;16.90;13.20;;;;;;;;;;5097642;28;20447;-71
2021/08/28 01:03:43;;;;;;;14.70;8.00;;;;;;;;;;5097807;28;20446;-71
2021/08/28 01:06:14;;;;;;;10.80;7.83;;;;;;;;;;5097194;28;20482;-69
2021/08/28 01:08:44;;;;;;;9.90;7.40;;;;;;;;;;5098241;28;20432;-71
2021/08/28 01:11:14;;;;;;;9.53;8.30;;;;;;;;;;5097108;28;20440;-69
2021/08/28 01:13:42;;;;;;;11.17;9.40;;;;;;;;;;5096939;28;20508;-70
2021/08/28 01:16:09;;;;;;;13.00;9.53;;;;;;;;;;5096666;28;20443;-70
2021/08/28 01:18:37;;;;;;;13.50;9.80;;;;;;;;;;5096945;28;20440;-71
2021/08/28 01:21:06;;;;;;;12.73;8.90;;;;;;;;;;5097235;28;20440;-70
2021/08/28 01:23:36;;;;;;;12.50;9.53;;;;;;;;;;5096620;28;20571;-70
2021/08/28 01:26:04;;;;;;;12.47;10.63;;;;;;;;;;5096538;28;20958;-71
2021/08/28 01:28:34;;;;;;;11.80;9.50;;;;;;;;;;5096640;28;20447;-71
2021/08/28 01:31:03;;;;;;;10.73;9.67;;;;;;;;;;5096730;28;20529;-71
2021/08/28 01:33:30;;;;;;;14.30;10.93;;;;;;;;;;5096495;28;20998;-70
2021/08/28 01:35:58;;;;;;;19.27;11.07;;;;;;;;;;5096642;28;20440;-69
2021/08/28 01:38:25;;;;;;;16.20;10.57;;;;;;;;;;5096539;28;20440;-71
2021/08/28 01:40:53;;;;;;;12.27;10.03;;;;;;;;;;5096518;28;20444;-70
2021/08/28 01:43:20;;;;;;;24.40;11.30;;;;;;;;;;5096458;28;20456;-70
2021/08/28 01:45:48;;;;;;;11.80;10.47;;;;;;;;;;5096109;28;20476;-69
2021/08/28 01:48:18;;;;;;;16.83;10.57;;;;;;;;;;5096509;28;20439;-69
2021/08/28 01:50:47;;;;;;;21.13;11.40;;;;;;;;;;5096253;28;20463;-69
2021/08/28 01:53:15;;;;;;;11.30;10.00;;;;;;;;;;5096187;28;20469;-69
2021/08/28 01:55:43;;;;;;;25.63;13.37;;;;;;;;;;5095870;28;20437;-69
2021/08/28 01:58:10;;;;;;;15.43;10.13;;;;;;;;;;5096086;28;20618;-70
2021/08/28 02:00:37;;;;;;;11.13;10.07;;;;;;;;;;5095830;28;20448;-70
2021/08/28 02:03:04;;;;;;;12.60;11.50;;;;;;;;;;5096083;28;20448;-69
2021/08/28 02:05:34;;;;;;;19.07;12.40;;;;;;;;;;5096130;28;20436;-70
2021/08/28 02:08:05;;;;;;;22.10;12.70;;;;;;;;;;5096030;28;20452;-70
2021/08/28 02:10:36;;;;;;;18.70;12.43;;;;;;;;;;5096036;28;20431;-70
2021/08/28 02:13:06;;;;;;;16.40;13.57;;;;;;;;;;5095665;28;20978;-71
2021/08/28 02:15:35;;;;;;;16.07;11.93;;;;;;;;;;5096235;28;20434;-69
2021/08/28 02:18:05;;;;;;;18.47;13.90;;;;;;;;;;5095500;28;20439;-70
2021/08/28 02:20:36;;;;;;;15.23;11.97;;;;;;;;;;5096198;28;20432;-70
2021/08/28 02:23:05;;;;;;;16.97;14.40;;;;;;;;;;5095312;28;20485;-70
2021/08/28 02:25:35;;;;;;;19.80;15.33;;;;;;;;;;5095330;28;20441;-70
2021/08/28 02:28:04;;;;;;;19.10;14.50;;;;;;;;;;5095577;28;20463;-70
2021/08/28 02:30:32;;;;;;;18.50;13.60;;;;;;;;;;5095294;28;20512;-71
2021/08/28 02:33:00;;;;;;;16.93;14.93;;;;;;;;;;5095262;28;20969;-71
2021/08/28 02:35:28;;;;;;;16.63;14.77;;;;;;;;;;5095471;28;20445;-71
2021/08/28 02:37:57;;;;;;;19.00;14.83;;;;;;;;;;5095157;28;20441;-70
2021/08/28 02:40:25;;;;;;;16.70;14.60;;;;;;;;;;5095056;28;20952;-71
2021/08/28 02:42:53;;;;;;;20.83;14.40;;;;;;;;;;5095315;28;20472;-70
2021/08/28 02:45:21;;;;;;;18.57;16.60;;;;;;;;;;5095273;28;20443;-71
2021/08/28 02:47:49;;;;;;;18.07;14.80;;;;;;;;;;5095882;28;20437;-71
2021/08/28 02:50:17;;;;;;;18.00;14.83;;;;;;;;;;5095159;28;20438;-71
2021/08/28 02:52:45;;;;;;;22.17;15.07;;;;;;;;;;5094773;28;20481;-71
2021/08/28 02:55:14;;;;;;;16.77;14.17;;;;;;;;;;5095377;28;20451;-71
2021/08/28 02:57:43;;;;;;;18.77;16.13;;;;;;;;;;5095566;28;20485;-71
2021/08/28 03:00:11;;;;;;;20.10;15.50;;;;;;;;;;5094706;28;20456;-71
2021/08/28 03:02:39;;;;;;;20.30;15.60;;;;;;;;;;5094753;28;20479;-71
2021/08/28 03:05:07;;;;;;;19.50;16.33;;;;;;;;;;5095034;28;20467;-71
2021/08/28 03:07:35;;;;;;;22.07;15.80;;;;;;;;;;5095307;28;20528;-71
2021/08/28 03:10:02;;;;;;;27.10;17.37;;;;;;;;;;5093668;28;20467;-71
2021/08/28 03:12:31;;;;;;;21.50;17.20;;;;;;;;;;5094356;28;20440;-71
2021/08/28 03:14:58;;;;;;;24.57;19.67;;;;;;;;;;5094972;28;20833;-71
2021/08/28 03:17:26;;;;;;;26.73;19.37;;;;;;;;;;5095050;28;20441;-72
2021/08/28 03:19:53;;;;;;;25.10;19.43;;;;;;;;;;5094712;28;20453;-71
2021/08/28 03:22:22;;;;;;;30.80;18.70;;;;;;;;;;5094860;28;20801;-71
2021/08/28 03:24:50;;;;;;;20.87;18.10;;;;;;;;;;5094165;28;20460;-71
2021/08/28 03:27:18;;;;;;;23.03;18.93;;;;;;;;;;5094226;28;21006;-71
2021/08/28 03:29:47;;;;;;;26.30;19.00;;;;;;;;;;5095026;28;20441;-71
2021/08/28 03:32:15;;;;;;;25.73;19.10;;;;;;;;;;5094319;28;20451;-71
2021/08/28 03:34:42;;;;;;;22.70;16.47;;;;;;;;;;5094396;28;20481;-72
2021/08/28 03:37:10;;;;;;;25.53;19.90;;;;;;;;;;5094045;28;20447;-71
2021/08/28 03:39:38;;;;;;;26.70;18.23;;;;;;;;;;5094337;28;20439;-71
2021/08/28 03:42:05;;;;;;;22.03;18.20;;;;;;;;;;5093952;28;20446;-71
2021/08/28 03:44:38;;;;;;;20.93;18.33;;;;;;;;;;5093893;28;20451;-71
2021/08/28 03:47:06;;;;;;;27.80;18.60;;;;;;;;;;5094272;28;20503;-71
2021/08/28 03:49:34;;;;;;;25.67;20.30;;;;;;;;;;5094160;28;20467;-70
2021/08/28 03:52:01;;;;;;;28.07;21.63;;;;;;;;;;5094157;28;20449;-70
2021/08/28 03:54:29;;;;;;;27.07;19.27;;;;;;;;;;5093857;28;20487;-69
2021/08/28 03:56:56;;;;;;;21.80;18.40;;;;;;;;;;5094439;28;20544;-70
2021/08/28 03:59:23;;;;;;;21.00;17.60;;;;;;;;;;5093927;28;20501;-70
2021/08/28 04:01:51;;;;;;;17.80;15.90;;;;;;;;;;5093877;28;20463;-69
2021/08/28 04:04:19;;;;;;;16.13;12.93;;;;;;;;;;5093569;28;20886;-70
2021/08/28 04:06:46;;;;;;;18.07;14.83;;;;;;;;;;5094047;28;20441;-70
2021/08/28 04:09:14;;;;;;;16.53;13.30;;;;;;;;;;5093947;28;20440;-69
2021/08/28 04:11:43;;;;;;;12.80;11.50;;;;;;;;;;5093828;28;20462;-71
2021/08/28 04:14:10;;;;;;;15.50;12.13;;;;;;;;;;5093624;28;20483;-70
2021/08/28 04:16:37;;;;;;;15.77;12.70;;;;;;;;;;5093422;28;20963;-70
2021/08/28 04:19:05;;;;;;;12.57;11.10;;;;;;;;;;5093355;28;20445;-70
2021/08/28 04:21:33;;;;;;;13.67;10.90;;;;;;;;;;5093954;28;20526;-69
2021/08/28 04:24:01;;;;;;;13.43;10.30;;;;;;;;;;5093331;28;20488;-70
2021/08/28 04:26:28;;;;;;;11.67;10.47;;;;;;;;;;5094110;28;20444;-69
2021/08/28 04:28:56;;;;;;;18.80;11.20;;;;;;;;;;5093850;28;20447;-70
2021/08/28 04:31:23;;;;;;;12.00;10.20;;;;;;;;;;5078698;28;20494;-70
2021/08/28 04:33:51;;;;;;;12.33;10.97;;;;;;;;;;5071556;28;20488;-70
2021/08/28 04:36:18;;;;;;;12.37;11.17;;;;;;;;;;5072542;28;20448;-70
2021/08/28 04:38:46;;;;;;;15.93;10.70;;;;;;;;;;5073538;28;20441;-69
2021/08/28 04:41:13;;;;;;;13.40;10.53;;;;;;;;;;5072494;28;20442;-69
2021/08/28 04:43:41;;;;;;;11.53;10.13;;;;;;;;;;5073053;28;20445;-70
2021/08/28 04:46:08;;;;;;;10.30;9.30;;;;;;;;;;5072826;28;20438;-69
2021/08/28 04:48:35;;;;;;;14.00;9.53;;;;;;;;;;5073224;28;20448;-70
2021/08/28 04:51:03;;;;;;;10.30;9.23;;;;;;;;;;5072679;28;20544;-70
2021/08/28 04:53:30;;;;;;;9.13;8.23;;;;;;;;;;5072262;28;21018;-70
2021/08/28 04:55:58;;;;;;;7.77;6.93;;;;;;;;;;5072431;28;20930;-70
2021/08/28 04:58:25;;;;;;;9.07;7.20;;;;;;;;;;5071768;28;20452;-70
2021/08/28 05:00:53;;;;;;;6.73;6.10;;;;;;;;;;5070872;28;20775;-71
2021/08/28 05:03:20;;;;;;;9.10;7.83;;;;;;;;;;5072724;28;20806;-70
2021/08/28 05:05:47;;;;;;;7.60;6.90;;;;;;;;;;5072330;28;20775;-70
2021/08/28 05:08:14;;;;;;;8.60;7.10;;;;;;;;;;5071944;28;20449;-71
2021/08/28 05:10:41;;;;;;;7.57;5.90;;;;;;;;;;5071325;28;20930;-71
2021/08/28 05:13:10;;;;;;;7.40;6.60;;;;;;;;;;5072345;28;20478;-71
2021/08/28 05:15:37;;;;;;;8.80;7.23;;;;;;;;;;5072627;28;20464;-70
2021/08/28 05:18:05;;;;;;;8.17;6.63;;;;;;;;;;5072547;28;20438;-70
2021/08/28 05:20:32;;;;;;;8.10;7.40;;;;;;;;;;5071443;28;20448;-71
2021/08/28 05:22:59;;;;;;;10.07;8.23;;;;;;;;;;5070810;28;20478;-70
2021/08/28 05:25:26;;;;;;;9.23;8.33;;;;;;;;;;5072516;28;20439;-70
2021/08/28 05:27:53;;;;;;;11.20;8.40;;;;;;;;;;5072535;28;20445;-70
2021/08/28 05:30:22;;;;;;;10.33;8.83;;;;;;;;;;5072868;28;20444;-67
2021/08/28 05:32:49;;;;;;;10.30;9.10;;;;;;;;;;5086244;28;20447;-69
2021/08/28 05:35:16;;;;;;;11.87;8.80;;;;;;;;;;5096071;28;20834;-70
2021/08/28 05:37:43;;;;;;;10.47;9.37;;;;;;;;;;5096580;28;20448;-67
2021/08/28 05:40:13;;;;;;;11.60;9.40;;;;;;;;;;5096249;28;20536;-67
2021/08/28 05:42:40;;;;;;;12.87;9.57;;;;;;;;;;5096044;28;20447;-68
2021/08/28 05:45:08;;;;;;;11.70;9.37;;;;;;;;;;5095871;28;20451;-68
2021/08/28 05:47:36;;;;;;;14.70;9.20;;;;;;;;;;5095624;28;20480;-68
2021/08/28 05:50:03;;;;;;;9.40;8.40;;;;;;;;;;5095852;28;20433;-68
2021/08/28 05:52:31;;;;;;;11.90;9.37;;;;;;;;;;5095908;28;20444;-68
2021/08/28 05:54:58;;;;;;;10.20;8.47;;;;;;;;;;5095768;28;20473;-68
2021/08/28 05:57:25;;;;;;;9.40;7.70;;;;;;;;;;5095849;28;20455;-67
2021/08/28 05:59:52;;;;;;;9.10;7.73;;;;;;;;;;5095105;28;20445;-68
2021/08/28 06:02:19;;;;;;;11.20;9.10;;;;;;;;;;5083646;28;20445;-68
2021/08/28 06:04:48;;;;;;;11.90;9.37;;;;;;;;;;5075365;28;20453;-68
2021/08/28 06:07:15;;;;;;;16.03;11.53;;;;;;;;;;5075882;28;20476;-68
2021/08/28 06:09:43;;;;;;;12.40;8.80;;;;;;;;;;5075737;28;20442;-67
2021/08/28 06:12:11;;;;;;;14.20;9.30;;;;;;;;;;5075439;28;20441;-68
2021/08/28 06:14:38;;;;;;;12.53;10.40;;;;;;;;;;5075280;28;20482;-68
2021/08/28 06:17:05;;;;;;;15.23;10.13;;;;;;;;;;5074707;28;20466;-69
2021/08/28 06:19:32;;;;;;;13.67;10.30;;;;;;;;;;5075226;28;20441;-69
2021/08/28 06:22:01;;;;;;;10.23;8.50;;;;;;;;;;5074161;28;20436;-68
2021/08/28 06:24:29;;;;;;;12.70;10.43;;;;;;;;;;5073883;28;20533;-68
2021/08/28 06:26:57;;;;;;;12.90;11.00;;;;;;;;;;5074554;28;20437;-68
2021/08/28 06:29:24;;;;;;;11.27;9.60;;;;;;;;;;5074482;28;20930;-68
2021/08/28 06:31:51;;;;;;;12.83;10.53;;;;;;;;;;5072704;28;20445;-68
2021/08/28 06:34:18;;;;;;;13.03;10.33;;;;;;;;;;5075085;28;20483;-68
2021/08/28 06:36:45;;;;;;;13.67;10.10;;;;;;;;;;5074885;28;20461;-68
2021/08/28 06:39:14;;;;;;;12.37;9.80;;;;;;;;;;5075196;28;20451;-69
2021/08/28 06:41:41;;;;;;;15.23;10.60;;;;;;;;;;5075214;28;20447;-68
2021/08/28 06:44:08;;;;;;;13.60;11.80;;;;;;;;;;5075345;28;20452;-68
2021/08/28 06:46:35;;;;;;;20.37;11.50;;;;;;;;;;5075008;28;20796;-68
2021/08/28 06:49:03;;;;;;;14.80;10.00;;;;;;;;;;5074268;28;20437;-68
2021/08/28 06:51:30;;;;;;;13.60;11.20;;;;;;;;;;5074174;28;20440;-68
2021/08/28 06:53:57;;;;;;;16.70;11.67;;;;;;;;;;5074061;28;20474;-69
2021/08/28 06:56:25;;;;;;;13.13;11.60;;;;;;;;;;5075193;28;20442;-68
2021/08/28 06:58:53;;;;;;;15.50;10.80;;;;;;;;;;5075105;28;20449;-68
2021/08/28 07:01:20;;;;;;;15.00;11.03;;;;;;;;;;5073804;28;20966;-68
2021/08/28 07:03:47;;;;;;;16.20;10.00;;;;;;;;;;5073405;28;20866;-68
2021/08/28 07:06:15;;;;;;;17.10;11.83;;;;;;;;;;5074386;28;20472;-68
2021/08/28 07:08:42;;;;;;;13.00;10.40;;;;;;;;;;5074526;28;20844;-68
2021/08/28 07:11:10;;;;;;;13.80;11.07;;;;;;;;;;5074329;28;20464;-68
2021/08/28 07:13:38;;;;;;;18.17;11.87;;;;;;;;;;5074018;28;20441;-68
2021/08/28 07:16:06;;;;;;;17.67;11.03;;;;;;;;;;5074029;28;20950;-69
2021/08/28 07:18:33;;;;;;;15.40;11.00;;;;;;;;;;5074028;28;20445;-68
2021/08/28 07:21:00;;;;;;;14.37;10.70;;;;;;;;;;5074310;28;20448;-68
2021/08/28 07:23:27;;;;;;;13.20;11.10;;;;;;;;;;5073966;28;20475;-68
2021/08/28 07:25:54;;;;;;;16.10;11.77;;;;;;;;;;5073974;28;20446;-69
2021/08/28 07:28:22;;;;;;;11.70;9.87;;;;;;;;;;5074199;28;20443;-68
2021/08/28 07:30:51;;;;;;;19.63;11.30;;;;;;;;;;5074022;28;20441;-68
2021/08/28 07:33:18;;;;;;;12.17;10.00;;;;;;;;;;5072059;28;20453;-68
2021/08/28 07:35:46;;;;;;;12.97;9.70;;;;;;;;;;5073433;28;20490;-68
2021/08/28 07:38:13;;;;;;;15.03;10.33;;;;;;;;;;5073813;28;20451;-68
2021/08/28 07:40:40;;;;;;;11.40;9.37;;;;;;;;;;5073943;28;20443;-68
2021/08/28 07:43:07;;;;;;;12.90;10.20;;;;;;;;;;5073703;28;20448;-68
2021/08/28 07:45:35;;;;;;;12.57;9.50;;;;;;;;;;5073649;28;20452;-68
2021/08/28 07:48:03;;;;;;;11.63;9.63;;;;;;;;;;5073840;28;20432;-68
2021/08/28 07:50:30;;;;;;;13.60;9.00;;;;;;;;;;5073470;28;20532;-69
2021/08/28 07:52:58;;;;;;;11.87;10.27;;;;;;;;;;5073270;28;20458;-68
2021/08/28 07:55:27;;;;;;;9.77;8.27;;;;;;;;;;5073164;28;20485;-68
2021/08/28 07:57:54;;;;;;;9.33;8.43;;;;;;;;;;5073912;28;20543;-70
2021/08/28 08:00:21;;;;;;;11.93;9.47;;;;;;;;;;5073280;28;20899;-69
2021/08/28 08:02:49;;;;;;;10.57;9.30;;;;;;;;;;5072568;28;20458;-70
2021/08/28 08:05:17;;;;;;;9.87;8.33;;;;;;;;;;5072494;28;20480;-68
2021/08/28 08:07:44;;;;;;;11.70;10.00;;;;;;;;;;5073255;28;20542;-69
2021/08/28 08:10:12;;;;;;;13.87;9.93;;;;;;;;;;5073162;28;20454;-69
2021/08/28 08:12:39;;;;;;;10.43;9.27;;;;;;;;;;5073033;28;20503;-68
2021/08/28 08:15:07;;;;;;;11.47;8.50;;;;;;;;;;5073152;28;20481;-68
2021/08/28 08:17:34;;;;;;;14.47;9.00;;;;;;;;;;5072390;28;20448;-68
2021/08/28 08:20:01;;;;;;;12.63;9.00;;;;;;;;;;5072860;28;20537;-71
2021/08/28 08:22:30;;;;;;;11.10;9.97;;;;;;;;;;5071941;28;20510;-69
2021/08/28 08:24:57;;;;;;;9.97;8.87;;;;;;;;;;5073083;28;20434;-69
2021/08/28 08:27:24;;;;;;;10.23;9.13;;;;;;;;;;5072654;28;20438;-68
2021/08/28 08:29:52;;;;;;;11.40;10.30;;;;;;;;;;5073185;28;20449;-69
2021/08/28 08:32:19;;;;;;;10.43;9.43;;;;;;;;;;5071766;28;20440;-69
2021/08/28 08:34:46;;;;;;;10.23;9.13;;;;;;;;;;5071583;28;20482;-69
2021/08/28 08:37:13;;;;;;;11.00;9.90;;;;;;;;;;5072775;28;20927;-69
2021/08/28 08:39:42;;;;;;;9.70;8.67;;;;;;;;;;5073238;28;20529;-69
2021/08/28 08:42:10;;;;;;;9.60;8.60;;;;;;;;;;5073256;28;20472;-69
2021/08/28 08:44:38;;;;;;;15.43;10.80;;;;;;;;;;5072963;28;20491;-69
2021/08/28 08:47:06;;;;;;;13.73;11.53;;;;;;;;;;5073162;28;20529;-69
2021/08/28 08:49:34;;;;;;;12.77;9.83;;;;;;;;;;5073072;28;20918;-69
2021/08/28 08:52:01;;;;;;;12.77;9.40;;;;;;;;;;5072295;28;20448;-69
2021/08/28 08:54:29;;;;;;;10.83;9.93;;;;;;;;;;5072989;28;20986;-69
2021/08/28 08:56:57;;;;;;;10.73;9.63;;;;;;;;;;5073334;28;20436;-69
2021/08/28 08:59:24;;;;;;;11.43;10.33;;;;;;;;;;5073074;28;20442;-69
2021/08/28 09:01:52;;;;;;;13.17;11.77;;;;;;;;;;5072584;28;20951;-69
2021/08/28 09:04:19;;;;;;;17.67;10.93;;;;;;;;;;5072412;28;20468;-68
2021/08/28 09:06:47;;;;;;;12.00;10.70;;;;;;;;;;5073745;28;20527;-68
2021/08/28 09:09:14;;;;;;;11.03;9.93;;;;;;;;;;5076106;28;20452;-73
2021/08/28 09:11:57;;;;;;;10.20;9.20;;;;;;;;;;5076667;28;20444;-74
2021/08/28 09:14:26;;;;;;;11.00;9.37;;;;;;;;;;5076697;28;20439;-74
2021/08/28 09:16:53;;;;;;;10.20;9.20;;;;;;;;;;5076286;28;20450;-73
2021/08/28 09:19:25;;;;;;;9.43;8.50;;;;;;;;;;5076301;28;20445;-73
2021/08/28 09:21:56;;;;;;;10.03;8.20;;;;;;;;;;5076664;28;20432;-73
2021/08/28 09:24:23;;;;;;;10.80;9.13;;;;;;;;;;5076285;28;20461;-73
2021/08/28 09:26:51;;;;;;;9.90;8.47;;;;;;;;;;5076123;28;20931;-73
2021/08/28 09:29:18;;;;;;;10.30;8.23;;;;;;;;;;5076460;28;20441;-74
2021/08/28 09:31:52;;;;;;;8.83;7.93;;;;;;;;;;5076082;28;20452;-74
2021/08/28 09:34:21;;;;;;;8.23;7.43;;;;;;;;;;5076027;28;20496;-74
2021/08/28 09:36:54;;;;;;;10.03;7.93;;;;;;;;;;5076242;28;20451;-74
2021/08/28 09:39:22;;;;;;;8.30;7.50;;;;;;;;;;5076234;28;20457;-74
2021/08/28 09:41:55;;;;;;;12.33;8.13;;;;;;;;;;5076989;28;20443;-73
2021/08/28 09:44:23;;;;;;;8.10;7.40;;;;;;;;;;5075995;28;20442;-73
2021/08/28 09:46:52;;;;;;;7.17;6.57;;;;;;;;;;5076164;28;20852;-73
2021/08/28 09:49:24;;;;;;;7.20;6.60;;;;;;;;;;5076060;28;20433;-73
2021/08/28 09:51:52;;;;;;;7.73;6.70;;;;;;;;;;5076145;28;20438;-73
2021/08/28 09:54:55;;;;;;;10.90;6.13;;;;;;;;;;5091483;27;20592;-73
2021/08/28 09:57:28;;;;;;;7.83;7.03;;;;;;;;;;5091046;28;20441;-72
2021/08/28 09:59:58;;;;;;;7.13;6.43;;;;;;;;;;5090717;28;20433;-73
2021/08/28 10:02:25;;;;;;;7.43;6.53;;;;;;;;;;5091445;28;20566;-73
2021/08/28 10:04:53;;;;;;;7.07;6.47;;;;;;;;;;5090966;28;20497;-73
2021/08/28 10:07:22;;;;;;;6.20;5.67;;;;;;;;;;5090454;28;20478;-73
2021/08/28 10:09:50;;;;;;;8.20;7.40;;;;;;;;;;5090752;28;20502;-72
2021/08/28 10:12:20;;;;;;;7.57;5.70;;;;;;;;;;5090353;28;20949;-73
2021/08/28 10:14:48;;;;;;;7.80;7.10;;;;;;;;;;5090225;28;20481;-73
2021/08/28 10:17:16;;;;;;;7.20;6.50;;;;;;;;;;5090577;28;20441;-72
2021/08/28 10:19:44;;;;;;;7.17;6.47;;;;;;;;;;5090541;28;20455;-73
2021/08/28 10:22:14;;;;;;;12.50;10.77;;;;;;;;;;5090511;28;20524;-68
2021/08/28 10:24:43;;;;;;;15.20;13.60;;;;;;;;;;5090760;28;20496;-68
2021/08/28 10:27:10;;;;;;;7.13;6.53;;;;;;;;;;5090335;28;20850;-70
2021/08/28 10:29:39;;;;;;;8.43;6.70;;;;;;;;;;5090282;28;20449;-68
2021/08/28 10:32:07;;;;;;;8.20;7.40;;;;;;;;;;5089965;28;20569;-69
2021/08/28 10:34:34;;;;;;;6.93;6.10;;;;;;;;;;5090237;28;20477;-71
2021/08/28 10:37:02;;;;;;;9.97;9.17;;;;;;;;;;5090353;28;20464;-70
2021/08/28 10:39:29;;;;;;;8.53;7.83;;;;;;;;;;5090444;28;20449;-70
2021/08/28 10:42:01;;;;;;;7.70;6.23;;;;;;;;;;5096288;28;20449;-71
2021/08/28 10:44:28;;;;;;;5.57;5.07;;;;;;;;;;5109132;28;20446;-71
2021/08/28 10:46:57;;;;;;;7.60;6.03;;;;;;;;;;5109813;28;20502;-72
2021/08/28 10:49:24;;;;;;;6.77;6.27;;;;;;;;;;5109302;28;20795;-69
2021/08/28 10:51:55;;;;;;;5.10;4.60;;;;;;;;;;5109136;28;20442;-69
2021/08/28 10:54:28;;;;;;;7.00;5.80;;;;;;;;;;5109870;28;20870;-69
2021/08/28 10:56:56;;;;;;;5.17;4.67;;;;;;;;;;5109504;28;20764;-69
2021/08/28 10:59:24;;;;;;;5.00;4.60;;;;;;;;;;5109871;28;20841;-69
2021/08/28 11:01:53;;;;;;;4.80;4.30;;;;;;;;;;5110234;28;20442;-69
2021/08/28 11:04:47;;;;;;;4.80;4.33;;;;;;;;;;5106236;28;20451;-69
2021/08/28 11:07:19;;;;;;;4.47;4.17;;;;;;;;;;5060342;28;20456;-69
2021/08/28 11:10:02;;;;;;;4.40;3.90;;;;;;;;;;5096646;28;20467;-69
2021/08/28 11:12:30;;;;;;;3.90;3.60;;;;;;;;;;5091944;28;20443;-69
2021/08/28 11:14:57;;;;;;;6.90;4.70;;;;;;;;;;5096003;28;20553;-69
2021/08/28 11:17:37;;;;;;;10.30;5.00;;;;;;;;;;5095971;28;20444;-68
2021/08/28 11:20:04;;;;;;;5.67;5.20;;;;;;;;;;5096132;28;20447;-68
2021/08/28 11:22:37;;;;;;;5.50;5.00;;;;;;;;;;5096184;28;20463;-69
2021/08/28 11:25:07;;;;;;;4.90;4.50;;;;;;;;;;5095779;28;20434;-69
2021/08/28 11:27:38;;;;;;;5.37;4.87;;;;;;;;;;5095775;28;20481;-69
2021/08/28 11:30:06;;;;;;;5.90;5.30;;;;;;;;;;5095690;28;20454;-69
2021/08/28 11:32:33;;;;;;;7.60;6.87;;;;;;;;;;5096003;28;20528;-69
2021/08/28 11:35:01;;;;;;;7.37;6.77;;;;;;;;;;5095322;28;20565;-70
2021/08/28 11:37:40;;;;;;;6.90;6.30;;;;;;;;;;5095876;28;20528;-69
2021/08/28 11:40:23;;;;;;;5.80;5.30;;;;;;;;;;5095570;28;20446;-72
2021/08/28 11:42:50;;;;;;;8.83;7.93;;;;;;;;;;5094072;28;20435;-68
2021/08/28 11:45:18;;;;;;;9.27;7.07;;;;;;;;;;5095106;28;20485;-69
2021/08/28 11:47:45;;;;;;;7.40;6.80;;;;;;;;;;5095710;28;20439;-69
2021/08/28 11:50:12;;;;;;;7.37;6.60;;;;;;;;;;5096369;28;20439;-69
2021/08/28 11:52:42;;;;;;;8.00;7.20;;;;;;;;;;5094763;28;20952;-69
2021/08/28 11:55:10;;;;;;;9.77;7.30;;;;;;;;;;5095015;28;20471;-69
2021/08/28 11:57:37;;;;;;;7.63;7.00;;;;;;;;;;5095478;28;20797;-69
2021/08/28 12:00:05;;;;;;;8.10;6.97;;;;;;;;;;5095472;28;20448;-69
2021/08/28 12:02:32;;;;;;;8.13;7.33;;;;;;;;;;5095444;28;20529;-68
2021/08/28 12:05:08;;;;;;;7.00;6.30;;;;;;;;;;5094547;28;20446;-68
2021/08/28 12:07:35;;;;;;;8.20;7.40;;;;;;;;;;5095351;28;20423;-68
2021/08/28 12:10:04;;;;;;;8.03;7.30;;;;;;;;;;5095263;28;20447;-68
2021/08/28 12:12:31;;;;;;;7.87;7.17;;;;;;;;;;5095462;28;20491;-70
2021/08/28 12:15:02;;;;;;;7.40;6.70;;;;;;;;;;5091358;28;20483;-68
2021/08/28 12:17:30;;;;;;;9.10;7.20;;;;;;;;;;5093967;28;20423;-69
2021/08/28 12:19:59;;;;;;;9.20;7.00;;;;;;;;;;5094607;28;20449;-69
2021/08/28 12:22:26;;;;;;;7.43;6.67;;;;;;;;;;5094504;28;20944;-70
2021/08/28 12:24:54;;;;;;;7.97;7.17;;;;;;;;;;5094733;28;20449;-69
2021/08/28 12:27:23;;;;;;;8.40;5.87;;;;;;;;;;5094915;28;20463;-70
2021/08/28 12:29:52;;;;;;;7.07;6.30;;;;;;;;;;5094480;28;20494;-69
2021/08/28 12:32:21;;;;;;;8.13;7.33;;;;;;;;;;5094399;28;20449;-68
2021/08/28 12:34:48;;;;;;;7.93;7.23;;;;;;;;;;5094342;28;20536;-68
2021/08/28 12:37:16;;;;;;;8.93;6.83;;;;;;;;;;5094713;28;20448;-69
2021/08/28 12:39:45;;;;;;;6.80;6.20;;;;;;;;;;5094354;28;20465;-69
2021/08/28 12:42:13;;;;;;;8.13;6.97;;;;;;;;;;5093829;28;20492;-69
2021/08/28 12:44:44;;;;;;;6.07;5.33;;;;;;;;;;5093807;28;20523;-69
2021/08/28 12:47:12;;;;;;;6.47;5.90;;;;;;;;;;5092138;28;20434;-69
2021/08/28 12:49:40;;;;;;;6.10;4.40;;;;;;;;;;5094304;28;20447;-68
2021/08/28 12:52:08;;;;;;;3.83;3.53;;;;;;;;;;5094183;28;20994;-68
2021/08/28 12:54:37;;;;;;;2.43;2.30;;;;;;;;;;5093984;28;20841;-68
2021/08/28 12:57:05;;;;;;;2.70;2.50;;;;;;;;;;5094271;28;20529;-68
2021/08/28 12:59:33;;;;;;;2.90;2.70;;;;;;;;;;5094225;28;20442;-68
2021/08/28 13:02:01;;;;;;;2.90;2.70;;;;;;;;;;5094305;28;20433;-68
2021/08/28 13:04:33;;;;;;;2.40;2.30;;;;;;;;;;5093654;28;20449;-68
2021/08/28 13:07:13;;;;;;;2.80;2.60;;;;;;;;;;5093400;28;20449;-68
2021/08/28 13:09:53;;;;;;;7.57;3.00;;;;;;;;;;5094280;28;20422;-68
2021/08/28 13:12:38;;;;;;;3.53;3.23;;;;;;;;;;5094104;28;20981;-67
2021/08/28 13:15:06;;;;;;;2.10;2.00;;;;;;;;;;5094321;28;20471;-67
2021/08/28 13:17:37;;;;;;;3.10;2.80;;;;;;;;;;5091729;28;20440;-66
2021/08/28 13:20:05;;;;;;;2.97;2.67;;;;;;;;;;5093581;28;20899;-66
2021/08/28 13:22:34;;;;;;;1.90;1.80;;;;;;;;;;5094010;28;20441;-66
2021/08/28 13:25:02;;;;;;;2.93;2.77;;;;;;;;;;5093301;28;20452;-66
2021/08/28 13:27:30;;;;;;;2.70;2.50;;;;;;;;;;5092316;28;20447;-67
2021/08/28 13:30:12;;;;;;;2.67;2.47;;;;;;;;;;5092122;28;20437;-67
2021/08/28 13:32:51;;;;;;;2.77;2.57;;;;;;;;;;5093479;28;20434;-66
2021/08/28 13:35:18;;;;;;;2.70;2.50;;;;;;;;;;5093860;28;20499;-66
2021/08/28 13:37:46;;;;;;;4.13;2.60;;;;;;;;;;5093765;28;20456;-66
2021/08/28 13:40:13;;;;;;;2.70;2.40;;;;;;;;;;5093825;28;20921;-66
2021/08/28 13:42:40;;;;;;;4.27;2.80;;;;;;;;;;5093982;28;20440;-67
2021/08/28 13:45:08;;;;;;;3.20;2.90;;;;;;;;;;5093315;28;20447;-66
2021/08/28 13:47:35;;;;;;;3.97;3.20;;;;;;;;;;5092526;28;20457;-68
2021/08/28 13:50:03;;;;;;;3.70;3.50;;;;;;;;;;5093075;28;20447;-66
2021/08/28 13:52:31;;;;;;;3.47;2.77;;;;;;;;;;5093482;28;20447;-66
2021/08/28 13:54:58;;;;;;;2.57;2.47;;;;;;;;;;5092964;28;20538;-68
2021/08/28 13:57:25;;;;;;;2.97;2.77;;;;;;;;;;5093373;28;20446;-66
2021/08/28 13:59:52;;;;;;;3.27;2.97;;;;;;;;;;5093501;28;20440;-69
2021/08/28 14:02:19;;;;;;;2.93;2.63;;;;;;;;;;5093493;28;20437;-69
2021/08/28 14:04:47;;;;;;;2.73;2.53;;;;;;;;;;5093506;28;20441;-67
2021/08/28 14:07:15;;;;;;;3.73;3.43;;;;;;;;;;5092402;28;20450;-68
2021/08/28 14:09:42;;;;;;;2.80;2.60;;;;;;;;;;5093054;28;20447;-68
2021/08/28 14:12:10;;;;;;;2.83;2.63;;;;;;;;;;5093068;28;20445;-68
2021/08/28 14:14:37;;;;;;;3.43;3.13;;;;;;;;;;5093804;28;20582;-68
2021/08/28 14:17:05;;;;;;;4.50;3.40;;;;;;;;;;5093025;28;20450;-68
2021/08/28 14:19:32;;;;;;;3.20;2.97;;;;;;;;;;5090776;28;20904;-71
2021/08/28 14:22:01;;;;;;;3.63;3.33;;;;;;;;;;5092932;28;20532;-68
2021/08/28 14:24:30;;;;;;;3.30;3.00;;;;;;;;;;5093690;28;20946;-68
2021/08/28 14:26:57;;;;;;;3.27;3.03;;;;;;;;;;5093179;28;20435;-68
2021/08/28 14:29:24;;;;;;;3.90;3.17;;;;;;;;;;5092806;28;20950;-68
2021/08/28 14:31:52;;;;;;;6.47;3.23;;;;;;;;;;5092767;28;20489;-69
2021/08/28 14:34:19;;;;;;;4.67;2.77;;;;;;;;;;5092659;28;20481;-68
2021/08/28 14:36:48;;;;;;;3.10;2.80;;;;;;;;;;5092939;28;20446;-68
2021/08/28 14:39:15;;;;;;;3.03;2.73;;;;;;;;;;5092806;28;20447;-68